createdAt,value
2023-03-11T00:00:30.381Z,0.83
2023-03-11T00:03:18.896Z,3.17
2023-03-11T00:06:07.826Z,0.90
2023-03-11T00:08:55.253Z,2.33
2023-03-11T00:11:42.647Z,1.10
2023-03-11T00:14:29.947Z,0.97
2023-03-11T00:17:17.848Z,1.87
2023-03-11T00:20:07.385Z,1.10
2023-03-11T00:22:54.973Z,1.10
2023-03-11T00:25:44.173Z,1.67
2023-03-11T00:28:34.229Z,1.30
2023-03-11T00:31:22.808Z,1.63
2023-03-11T00:34:10.693Z,1.20
2023-03-11T00:36:58.589Z,1.23
2023-03-11T00:39:46.025Z,1.20
2023-03-11T00:42:33.523Z,1.20
2023-03-11T00:45:21.438Z,0.90
2023-03-11T00:48:09.422Z,1.17
2023-03-11T00:50:56.737Z,0.90
2023-03-11T00:53:45.073Z,1.00
2023-03-11T00:56:32.463Z,1.10
2023-03-11T00:59:20.342Z,1.07
2023-03-11T01:02:07.792Z,1.23
2023-03-11T01:04:56.248Z,1.43
2023-03-11T01:07:43.647Z,1.20
2023-03-11T01:10:31.842Z,1.60
2023-03-11T01:13:19.192Z,1.13
2023-03-11T01:16:08.435Z,2.13
2023-03-11T01:18:55.826Z,1.57
2023-03-11T01:21:43.360Z,1.03
2023-03-11T01:24:30.610Z,1.07
2023-03-11T01:27:18.497Z,1.67
2023-03-11T01:30:06.112Z,0.90
2023-03-11T01:32:54.638Z,1.93
2023-03-11T01:35:42.384Z,0.90
2023-03-11T01:38:29.706Z,1.40
2023-03-11T01:41:17.576Z,1.10
2023-03-11T01:44:05.762Z,0.87
2023-03-11T01:46:53.547Z,2.33
2023-03-11T01:49:42.519Z,1.87
2023-03-11T01:52:30.113Z,1.67
2023-03-11T01:55:19.954Z,1.20
2023-03-11T01:58:08.794Z,1.10
2023-03-11T02:00:57.680Z,1.40
2023-03-11T02:03:45.300Z,1.07
2023-03-11T02:06:33.639Z,1.00
2023-03-11T02:09:23.316Z,1.30
2023-03-11T02:12:12.223Z,1.20
2023-03-11T02:15:00.483Z,1.73
2023-03-11T02:17:48.440Z,1.40
2023-03-11T02:20:47.998Z,1.07
2023-03-11T02:23:40.272Z,1.17
2023-03-11T02:26:34.267Z,1.23
2023-03-11T02:29:23.052Z,1.20
2023-03-11T02:32:11.019Z,3.10
2023-03-11T02:34:58.897Z,1.40
2023-03-11T02:37:46.981Z,1.03
2023-03-11T02:40:53.308Z,1.43
2023-03-11T02:43:42.455Z,1.27
2023-03-11T02:46:30.492Z,1.40
2023-03-11T02:49:17.955Z,1.43
2023-03-11T02:52:06.404Z,2.47
2023-03-11T02:54:53.715Z,3.23
2023-03-11T02:57:41.406Z,1.27
2023-03-11T03:00:29.524Z,1.30
2023-03-11T03:03:17.419Z,1.17
2023-03-11T03:06:05.273Z,1.17
2023-03-11T03:08:52.695Z,1.20
2023-03-11T03:11:40.669Z,2.13
2023-03-11T03:14:28.596Z,1.07
2023-03-11T03:17:16.345Z,2.30
2023-03-11T03:20:06.253Z,1.23
2023-03-11T03:22:54.345Z,1.20
2023-03-11T03:25:45.462Z,1.10
2023-03-11T03:28:33.156Z,0.80
2023-03-11T03:31:20.605Z,1.20
2023-03-11T03:34:08.031Z,1.83
2023-03-11T03:36:55.246Z,1.00
2023-03-11T03:39:43.107Z,2.87
2023-03-11T03:42:30.449Z,1.30
2023-03-11T03:45:18.348Z,1.77
2023-03-11T03:48:05.996Z,1.43
2023-03-11T03:50:53.895Z,1.10
2023-03-11T03:53:41.534Z,2.83
2023-03-11T03:56:29.086Z,1.13
2023-03-11T03:59:16.307Z,1.27
2023-03-11T04:02:04.309Z,1.77
2023-03-11T04:04:51.737Z,1.33
2023-03-11T04:07:39.432Z,1.37
2023-03-11T04:10:26.836Z,1.10
2023-03-11T04:13:14.505Z,1.23
2023-03-11T04:16:03.958Z,1.20
2023-03-11T04:18:51.858Z,1.73
2023-03-11T04:21:39.265Z,0.90
2023-03-11T04:24:27.149Z,1.10
2023-03-11T04:27:15.021Z,1.00
2023-03-11T04:30:03.102Z,0.90
2023-03-11T04:32:50.552Z,0.73
2023-03-11T04:35:39.528Z,0.93
2023-03-11T04:38:26.907Z,1.10
2023-03-11T04:41:14.129Z,1.10
2023-03-11T04:44:01.515Z,1.20
2023-03-11T04:46:49.182Z,1.00
2023-03-11T04:49:36.701Z,1.23
2023-03-11T04:52:24.769Z,1.23
2023-03-11T04:55:13.781Z,1.70
2023-03-11T04:58:01.734Z,1.97
2023-03-11T05:00:49.155Z,2.10
2023-03-11T05:03:37.042Z,1.60
2023-03-11T05:06:24.775Z,1.00
2023-03-11T05:09:12.164Z,2.40
2023-03-11T05:12:00.109Z,1.37
2023-03-11T05:14:47.493Z,1.60
2023-03-11T05:17:35.380Z,1.20
2023-03-11T05:20:23.249Z,2.33
2023-03-11T05:23:11.114Z,1.50
2023-03-11T05:25:58.560Z,1.97
2023-03-11T05:28:46.264Z,1.20
2023-03-11T05:31:33.900Z,1.10
2023-03-11T05:34:21.824Z,1.60
2023-03-11T05:37:10.078Z,2.67
2023-03-11T05:39:57.281Z,1.83
2023-03-11T05:42:45.232Z,1.27
2023-03-11T05:45:32.694Z,2.40
2023-03-11T05:48:20.575Z,1.40
2023-03-11T05:51:11.437Z,1.40
2023-03-11T05:53:59.220Z,1.13
2023-03-11T05:56:47.512Z,1.33
2023-03-11T05:59:35.454Z,1.50
2023-03-11T06:02:23.324Z,1.37
2023-03-11T06:05:13.399Z,1.47
2023-03-11T06:08:01.511Z,1.40
2023-03-11T06:10:49.380Z,0.97
2023-03-11T06:13:37.334Z,2.47
2023-03-11T06:16:26.200Z,1.67
2023-03-11T06:19:13.718Z,3.80
2023-03-11T06:22:00.984Z,2.40
2023-03-11T06:24:48.857Z,1.80
2023-03-11T06:27:36.247Z,2.07
2023-03-11T06:30:25.544Z,2.70
2023-03-11T06:33:17.619Z,1.97
2023-03-11T06:36:06.417Z,1.67
2023-03-11T06:38:54.338Z,2.50
2023-03-11T06:41:42.615Z,1.40
2023-03-11T06:44:30.486Z,1.50
2023-03-11T06:47:17.862Z,1.13
2023-03-11T06:50:07.831Z,1.40
2023-03-11T06:52:55.018Z,1.83
2023-03-11T06:55:42.882Z,1.50
2023-03-11T06:58:30.707Z,2.70
2023-03-11T07:01:20.091Z,2.27
2023-03-11T07:04:08.020Z,2.07
2023-03-11T07:06:55.524Z,1.20
2023-03-11T07:09:43.360Z,2.23
2023-03-11T07:12:31.314Z,2.03
2023-03-11T07:15:18.876Z,3.10
2023-03-11T07:18:06.427Z,2.40
2023-03-11T07:20:53.796Z,1.23
2023-03-11T07:23:41.791Z,6.63
2023-03-11T07:26:30.230Z,1.53
2023-03-11T07:29:17.506Z,4.60
2023-03-11T07:32:05.377Z,4.47
2023-03-11T07:34:53.349Z,1.13
2023-03-11T07:37:40.781Z,4.53
2023-03-11T07:40:28.758Z,5.30
2023-03-11T07:43:16.175Z,1.67
2023-03-11T07:46:08.481Z,4.07
2023-03-11T07:48:56.456Z,1.70
2023-03-11T07:51:45.316Z,2.47
2023-03-11T07:54:32.764Z,1.60
2023-03-11T07:57:20.289Z,4.50
2023-03-11T08:00:08.683Z,1.83
2023-03-11T08:02:56.100Z,1.47
2023-03-11T08:05:44.359Z,1.73
2023-03-11T08:08:32.113Z,1.47
2023-03-11T08:11:20.906Z,4.87
2023-03-11T08:14:08.960Z,2.80
2023-03-11T08:16:56.878Z,4.47
2023-03-11T08:19:44.796Z,4.57
2023-03-11T08:22:32.214Z,3.17
2023-03-11T08:25:19.654Z,1.50
2023-03-11T08:28:07.784Z,1.80
2023-03-11T08:30:55.506Z,2.13
2023-03-11T08:33:43.406Z,2.40
2023-03-11T08:36:31.899Z,1.23
2023-03-11T08:39:19.342Z,2.40
2023-03-11T08:42:07.385Z,1.60
2023-03-11T08:45:00.037Z,1.33
2023-03-11T08:47:50.065Z,2.20
2023-03-11T08:50:51.540Z,1.37
2023-03-11T08:53:42.093Z,1.30
2023-03-11T08:56:29.675Z,0.93
2023-03-11T08:59:17.605Z,0.97
2023-03-11T09:02:05.104Z,1.03
2023-03-11T09:04:53.072Z,1.00
2023-03-11T09:07:40.534Z,1.30
2023-03-11T09:10:28.454Z,1.10
2023-03-11T09:13:16.384Z,2.73
2023-03-11T09:16:05.894Z,1.23
2023-03-11T09:18:53.774Z,1.00
2023-03-11T09:21:41.735Z,1.20
2023-03-11T09:24:29.299Z,1.10
2023-03-11T09:27:17.208Z,1.07
2023-03-11T09:30:05.115Z,1.70
2023-03-11T09:32:53.091Z,2.33
2023-03-11T09:35:41.149Z,3.60
2023-03-11T09:38:28.562Z,1.80
2023-03-11T09:41:16.441Z,2.37
2023-03-11T09:44:18.890Z,1.00
2023-03-11T09:47:10.728Z,0.77
2023-03-11T09:50:18.716Z,1.27
2023-03-11T09:53:24.598Z,2.60
2023-03-11T09:56:14.818Z,0.70
2023-03-11T09:59:05.653Z,2.17
2023-03-11T10:01:53.551Z,1.23
2023-03-11T10:04:44.774Z,1.90
2023-03-11T10:07:35.206Z,2.30
2023-03-11T10:10:23.384Z,0.77
2023-03-11T10:13:26.661Z,1.03
2023-03-11T10:16:25.487Z,0.97
2023-03-11T10:19:23.204Z,1.90
2023-03-11T10:22:28.527Z,5.80
2023-03-11T10:25:17.929Z,1.30
2023-03-11T10:28:13.660Z,3.23
2023-03-11T10:31:19.336Z,1.03
2023-03-11T10:34:13.960Z,0.80
2023-03-11T10:37:19.550Z,1.33
2023-03-11T10:40:23.775Z,1.77
2023-03-11T10:43:17.336Z,1.63
2023-03-11T10:46:13.633Z,1.20
2023-03-11T10:49:01.473Z,1.77
2023-03-11T10:51:50.441Z,1.00
2023-03-11T10:54:46.519Z,2.93
2023-03-11T10:57:35.837Z,2.40
2023-03-11T11:00:30.180Z,1.30
2023-03-11T11:03:24.315Z,2.17
2023-03-11T11:06:26.574Z,0.97
2023-03-11T11:09:19.973Z,1.50
2023-03-11T11:12:14.167Z,1.60
2023-03-11T11:15:02.089Z,1.40
2023-03-11T11:17:50.290Z,0.63
2023-03-11T11:20:38.985Z,1.77
2023-03-11T11:23:27.920Z,1.90
2023-03-11T11:26:19.001Z,2.40
2023-03-11T11:29:09.139Z,1.53
2023-03-11T11:32:12.724Z,0.70
2023-03-11T11:35:00.214Z,0.97
2023-03-11T11:37:50.084Z,0.97
2023-03-11T11:40:37.523Z,1.53
2023-03-11T11:43:33.782Z,1.13
2023-03-11T11:46:35.937Z,2.10
2023-03-11T11:49:29.232Z,1.00
2023-03-11T11:52:22.602Z,1.77
2023-03-11T11:55:27.462Z,0.87
2023-03-11T11:58:14.985Z,1.67
2023-03-11T12:01:29.348Z,2.97
2023-03-11T12:04:26.283Z,1.20
2023-03-11T12:07:26.065Z,1.33
2023-03-11T12:10:26.042Z,4.00
2023-03-11T12:13:22.347Z,1.70
2023-03-11T12:16:18.927Z,1.37
2023-03-11T12:19:14.405Z,1.40
2023-03-11T12:22:02.352Z,1.10
2023-03-11T12:25:05.050Z,1.00
2023-03-11T12:27:58.179Z,2.33
2023-03-11T12:30:50.410Z,2.33
2023-03-11T12:33:38.291Z,1.83
2023-03-11T12:36:29.878Z,1.47
2023-03-11T12:39:25.853Z,1.23
2023-03-11T12:42:17.629Z,0.80
2023-03-11T12:45:31.561Z,0.80
2023-03-11T12:48:27.895Z,2.70
2023-03-11T12:51:28.189Z,1.50
2023-03-11T12:54:42.308Z,2.23
2023-03-11T12:57:37.996Z,2.70
2023-03-11T13:00:30.181Z,1.37
2023-03-11T13:03:18.214Z,1.37
2023-03-11T13:06:21.269Z,1.87
2023-03-11T13:09:14.995Z,3.20
2023-03-11T13:12:02.960Z,2.07
2023-03-11T13:15:10.839Z,2.43
2023-03-11T13:18:03.369Z,0.93
2023-03-11T13:21:01.357Z,2.57
2023-03-11T13:23:48.563Z,1.20
2023-03-11T13:26:41.772Z,1.10
2023-03-11T13:29:32.183Z,2.53
2023-03-11T13:32:22.687Z,3.30
2023-03-11T13:35:34.526Z,3.07
2023-03-11T13:38:34.235Z,2.77
2023-03-11T13:41:25.279Z,1.40
2023-03-11T13:44:16.134Z,3.90
2023-03-11T13:47:06.383Z,1.67
2023-03-11T13:50:12.701Z,2.30
2023-03-11T13:53:02.478Z,1.40
2023-03-11T13:55:50.688Z,3.83
2023-03-11T13:58:38.132Z,3.13
2023-03-11T14:01:26.214Z,1.10
2023-03-11T14:04:13.682Z,2.77
2023-03-11T14:07:01.615Z,1.10
2023-03-11T14:09:49.075Z,1.53
2023-03-11T14:12:36.957Z,1.77
2023-03-11T14:15:26.817Z,1.50
2023-03-11T14:18:26.864Z,1.40
2023-03-11T14:21:19.806Z,2.37
2023-03-11T14:24:07.713Z,0.97
2023-03-11T14:26:56.579Z,1.43
2023-03-11T14:29:45.267Z,1.50
2023-03-11T14:32:34.831Z,2.20
2023-03-11T14:35:22.995Z,1.13
2023-03-11T14:38:23.312Z,1.90
2023-03-11T14:41:14.854Z,3.93
2023-03-11T14:44:02.672Z,7.37
2023-03-11T14:46:53.032Z,3.37
2023-03-11T14:49:40.397Z,1.67
2023-03-11T14:52:43.443Z,4.27
2023-03-11T14:55:36.380Z,2.73
2023-03-11T14:58:38.334Z,2.53
2023-03-11T15:01:27.296Z,1.40
2023-03-11T15:04:16.824Z,2.60
2023-03-11T15:07:04.998Z,2.13
2023-03-11T15:09:52.897Z,2.30
2023-03-11T15:12:45.096Z,1.63
2023-03-11T15:15:33.058Z,2.80
2023-03-11T15:18:22.997Z,4.27
2023-03-11T15:21:20.593Z,3.83
2023-03-11T15:24:19.130Z,3.60
2023-03-11T15:27:07.980Z,2.30
2023-03-11T15:29:55.902Z,4.40
2023-03-11T15:32:43.749Z,1.97
2023-03-11T15:35:31.716Z,1.30
2023-03-11T15:38:27.727Z,1.53
2023-03-11T15:41:16.348Z,2.70
2023-03-11T15:44:07.394Z,1.47
2023-03-11T15:46:55.332Z,1.53
2023-03-11T15:49:43.346Z,2.00
2023-03-11T15:52:30.734Z,1.50
2023-03-11T15:55:20.086Z,2.17
2023-03-11T15:58:08.200Z,5.27
2023-03-11T16:00:57.262Z,2.20
2023-03-11T16:03:45.306Z,2.00
2023-03-11T16:06:32.691Z,1.67
2023-03-11T16:09:20.126Z,1.30
2023-03-11T16:12:15.149Z,1.67
2023-03-11T16:15:03.054Z,2.37
2023-03-11T16:17:51.203Z,2.20
2023-03-11T16:20:46.144Z,2.33
2023-03-11T16:23:50.281Z,1.63
2023-03-11T16:26:38.726Z,1.43
2023-03-11T16:29:27.471Z,2.03
2023-03-11T16:32:15.358Z,4.23
2023-03-11T16:35:03.205Z,2.80
2023-03-11T16:37:51.280Z,5.87
2023-03-11T16:40:38.683Z,1.60
2023-03-11T16:43:26.582Z,2.97
2023-03-11T16:46:14.033Z,2.13
2023-03-11T16:49:02.016Z,2.70
2023-03-11T16:51:49.229Z,2.37
2023-03-11T16:54:37.199Z,1.57
2023-03-11T16:57:24.940Z,2.80
2023-03-11T17:00:13.761Z,2.70
2023-03-11T17:03:01.203Z,3.30
2023-03-11T17:05:49.128Z,2.63
2023-03-11T17:08:36.549Z,2.47
2023-03-11T17:11:24.645Z,8.33
2023-03-11T17:14:16.578Z,3.83
2023-03-11T17:17:04.494Z,3.03
2023-03-11T17:19:52.293Z,2.67
2023-03-11T17:22:39.728Z,2.67
2023-03-11T17:25:27.629Z,4.10
2023-03-11T17:28:14.831Z,4.93
2023-03-11T17:31:02.764Z,2.87
2023-03-11T17:33:50.708Z,3.40
2023-03-11T17:36:40.824Z,2.93
2023-03-11T17:39:28.220Z,3.47
2023-03-11T17:42:16.201Z,4.30
2023-03-11T17:45:03.622Z,3.00
2023-03-11T17:47:51.514Z,4.20
2023-03-11T17:50:39.208Z,4.70
2023-03-11T17:53:27.077Z,4.03
2023-03-11T17:56:15.764Z,5.17
2023-03-11T17:59:03.238Z,4.57
2023-03-11T18:01:50.651Z,5.83
2023-03-11T18:04:39.111Z,3.37
2023-03-11T18:07:27.098Z,2.63
2023-03-11T18:10:15.979Z,1.97
2023-03-11T18:13:03.371Z,3.87
2023-03-11T18:15:58.440Z,1.93
2023-03-11T18:18:46.093Z,1.90
2023-03-11T18:21:34.027Z,6.50
2023-03-11T18:24:21.409Z,3.00
2023-03-11T18:27:08.825Z,2.10
2023-03-11T18:29:56.282Z,4.53
2023-03-11T18:32:44.722Z,6.27
2023-03-11T18:35:32.227Z,3.93
2023-03-11T18:38:20.106Z,3.87
2023-03-11T18:41:08.168Z,3.00
2023-03-11T18:43:57.580Z,4.50
2023-03-11T18:46:44.979Z,2.67
2023-03-11T18:49:32.439Z,2.67
2023-03-11T18:52:20.103Z,3.30
2023-03-11T18:55:07.664Z,2.80
2023-03-11T18:57:54.887Z,3.60
2023-03-11T19:00:42.845Z,4.37
2023-03-11T19:03:30.115Z,2.67
2023-03-11T19:06:18.063Z,3.50
2023-03-11T19:09:06.624Z,5.17
2023-03-11T19:11:54.080Z,2.93
2023-03-11T19:14:41.573Z,2.40
2023-03-11T19:17:29.248Z,3.03
2023-03-11T19:20:16.876Z,2.60
2023-03-11T19:23:05.088Z,4.47
2023-03-11T19:26:02.548Z,5.27
2023-03-11T19:28:51.142Z,3.57
2023-03-11T19:31:38.947Z,3.47
2023-03-11T19:34:27.141Z,4.23
2023-03-11T19:37:14.553Z,4.13
2023-03-11T19:40:02.227Z,3.33
2023-03-11T19:42:49.940Z,4.07
2023-03-11T19:45:37.363Z,4.10
2023-03-11T19:48:25.566Z,12.17
2023-03-11T19:51:13.538Z,7.60
2023-03-11T19:54:01.431Z,4.43
2023-03-11T19:56:48.969Z,4.87
2023-03-11T19:59:36.872Z,5.17
2023-03-11T20:02:24.337Z,2.40
2023-03-11T20:05:12.013Z,3.07
2023-03-11T20:07:59.852Z,3.40
2023-03-11T20:10:49.073Z,6.23
2023-03-11T20:13:37.638Z,4.97
2023-03-11T20:16:25.075Z,4.93
2023-03-11T20:19:12.499Z,4.03
2023-03-11T20:21:59.986Z,4.37
2023-03-11T20:24:47.402Z,4.37
2023-03-11T20:27:34.950Z,4.07
2023-03-11T20:30:24.237Z,6.93
2023-03-11T20:33:12.209Z,3.57
2023-03-11T20:36:06.648Z,6.90
2023-03-11T20:38:54.843Z,3.10
2023-03-11T20:41:42.357Z,4.00
2023-03-11T20:44:29.837Z,3.63
2023-03-11T20:47:17.251Z,3.20
2023-03-11T20:50:04.883Z,4.33
2023-03-11T20:52:52.302Z,4.23
2023-03-11T20:55:40.841Z,4.40
2023-03-11T20:58:28.453Z,3.93
2023-03-11T21:01:17.613Z,4.97
2023-03-11T21:04:05.085Z,3.63
2023-03-11T21:06:53.298Z,3.47
2023-03-11T21:09:41.205Z,3.70
2023-03-11T21:12:31.145Z,4.73
2023-03-11T21:15:19.278Z,7.07
2023-03-11T21:18:07.013Z,7.90
2023-03-11T21:20:54.965Z,6.60
2023-03-11T21:23:43.730Z,6.93
2023-03-11T21:26:31.980Z,6.60
2023-03-11T21:29:19.384Z,6.17
2023-03-11T21:32:07.346Z,9.97
2023-03-11T21:34:58.844Z,8.70
2023-03-11T21:37:46.616Z,4.50
2023-03-11T21:40:33.999Z,10.33
2023-03-11T21:43:22.240Z,7.73
2023-03-11T21:46:10.918Z,6.90
2023-03-11T21:48:59.375Z,5.53
2023-03-11T21:51:46.651Z,6.90
2023-03-11T21:54:34.614Z,6.13
2023-03-11T21:57:22.014Z,8.77
2023-03-11T22:00:09.958Z,6.63
2023-03-11T22:02:58.095Z,6.13
2023-03-11T22:05:45.649Z,4.97
2023-03-11T22:08:34.031Z,5.93
2023-03-11T22:11:21.284Z,8.27
2023-03-11T22:14:08.839Z,11.13
2023-03-11T22:16:56.746Z,7.67
2023-03-11T22:19:44.648Z,6.63
2023-03-11T22:22:32.314Z,8.37
2023-03-11T22:25:20.189Z,5.23
2023-03-11T22:28:10.280Z,8.07
2023-03-11T22:30:58.241Z,7.27
2023-03-11T22:33:46.112Z,10.03
2023-03-11T22:36:33.312Z,7.87
2023-03-11T22:39:21.252Z,6.70
2023-03-11T22:42:09.234Z,9.87
2023-03-11T22:44:57.009Z,6.27
2023-03-11T22:47:44.700Z,7.57
2023-03-11T22:50:33.676Z,9.67
2023-03-11T22:53:23.501Z,6.67
2023-03-11T22:56:12.635Z,6.47
2023-03-11T22:59:00.541Z,5.77
2023-03-11T23:01:47.742Z,8.60
2023-03-11T23:04:35.436Z,8.87
2023-03-11T23:07:22.865Z,15.47
2023-03-11T23:10:11.489Z,27.17
2023-03-11T23:12:58.920Z,15.10
2023-03-11T23:15:47.936Z,12.23
2023-03-11T23:18:35.448Z,11.40
2023-03-11T23:21:27.087Z,11.60
2023-03-11T23:24:14.954Z,15.87
2023-03-11T23:27:04.704Z,8.13
2023-03-11T23:29:53.179Z,12.07
2023-03-11T23:32:40.632Z,14.80
2023-03-11T23:35:28.508Z,15.47
2023-03-11T23:38:15.884Z,9.30
2023-03-11T23:41:07.031Z,10.67
2023-03-11T23:43:54.903Z,9.83
2023-03-11T23:46:42.293Z,7.87
2023-03-11T23:49:30.176Z,7.87
2023-03-11T23:52:17.431Z,10.13
2023-03-11T23:55:05.496Z,7.33
2023-03-11T23:57:52.869Z,5.90
